Stena Suede — ZCEF5 — position and weather

sailwx.info

Track history (hours):
 
Tides and Currents Weather Stations Pressure Air Temp Water Temp Dewpoint Dewpoint Depression Visibility Wind Speed Wind Dir Waves Ship Positions

Stena Suede

Last reported at 2015-Jul-01 16:10 UTC. Time now 2015-Jul-04 11:50 UTC.
Position N 49°44' W 003°36'.

Length 274 m; draft 9.3 m.

Type: Tanker. MMSI: 310622000.

Date/timePositionNaut miles runAvg speedWind from/ knotsBaromVisibWave heightAir tempDewpointWater temp
2015-Jul-01 16:10N 49°44' W 003°36'2213.3
2015-Jul-01 14:30N 49°56' W 003°07'1515.6
2015-Jul-01 13:33N 50°00' W 002°45'1616.5
2015-Jul-01 12:34N 50°04' W 002°20'1716.5
2015-Jul-01 11:32N 50°02' W 001°54'1615.3
2015-Jul-01 10:27N 49°55' W 001°31'1713.8
2015-Jul-01 09:12N 49°48' W 001°06'812.9
2015-Jul-01 08:33N 49°45' W 000°54'1312.6
2015-Jul-01 07:33N 49°41' W 000°36'1312.9
2015-Jul-01 06:34N 49°35' W 000°18'1312.5
2015-Jul-01 05:34N 49°30' W 000°00'6 5.4
2015-Jul-01 04:33N 49°28' E 000°08'0 0.0
2015-Jul-01 03:33N 49°28' E 000°08'0 0.0
2015-Jul-01 02:33N 49°28' E 000°08'0 0.0
2015-Jul-01 01:33N 49°28' E 000°08'0 0.0
2015-Jul-01 00:33N 49°28' E 000°08'0 0.0
2015-Jun-30 23:33N 49°28' E 000°08'0 0.0
2015-Jun-30 22:33N 49°28' E 000°08'0 0.0
2015-Jun-30 21:33N 49°28' E 000°08'0 0.0
2015-Jun-30 20:33N 49°28' E 000°08'0 0.0
2015-Jun-30 19:33N 49°28' E 000°08'0 0.0
2015-Jun-30 18:33N 49°28' E 000°08'0 0.0
2015-Jun-30 17:33N 49°28' E 000°08'0 0.0
2015-Jun-30 16:33N 49°28' E 000°08'0 0.0
2015-Jun-30 15:33N 49°28' E 000°08'0 0.0
2015-Jun-30 14:33N 49°28' E 000°08'0 0.0
2015-Jun-30 13:33N 49°28' E 000°08'0 0.0
2015-Jun-30 12:33N 49°28' E 000°08'0 0.0
2015-Jun-30 11:33N 49°28' E 000°08'0 0.0
2015-Jun-30 10:33N 49°28' E 000°08'0 0.0
2015-Jun-30 09:33N 49°28' E 000°08'0 0.0
2015-Jun-30 08:33N 49°28' E 000°08'0 0.0
2015-Jun-30 07:33N 49°28' E 000°08'0 0.0
2015-Jun-30 06:33N 49°28' E 000°08'0 0.0
2015-Jun-30 05:33N 49°28' E 000°08'0 0.0
2015-Jun-30 04:33N 49°28' E 000°08'0 0.0
2015-Jun-30 03:33N 49°28' E 000°08'0 0.0
2015-Jun-30 02:33N 49°28' E 000°08'0 0.0
2015-Jun-30 01:33N 49°28' E 000°08'0 0.0
2015-Jun-30 00:33N 49°28' E 000°08'0 0.0
2015-Jun-29 23:33N 49°28' E 000°08'0 0.0
2015-Jun-29 22:32N 49°28' E 000°08'0 0.0
2015-Jun-29 21:33N 49°28' E 000°08'0 0.0
2015-Jun-29 20:33N 49°28' E 000°08'0 0.0
2015-Jun-29 19:33N 49°28' E 000°08'0 0.1
2015-Jun-29 18:34N 49°28' E 000°08'5 5.2
2015-Jun-29 17:34N 49°30' E 000°00'9 8.9
2015-Jun-29 16:34N 49°34' W 000°12'3 2.6
2015-Jun-29 15:31N 49°36' W 000°16'0 0.1
2015-Jun-29 14:31N 49°36' W 000°16'0 0.0
2015-Jun-29 13:31N 49°36' W 000°16'0 0.0
2015-Jun-29 12:28N 49°36' W 000°16'0 0.0
2015-Jun-29 11:31N 49°36' W 000°16'0 0.1
2015-Jun-29 10:31N 49°36' W 000°15'0 0.2
2015-Jun-29 09:31N 49°36' W 000°15'0 0.1
2015-Jun-29 08:31N 49°36' W 000°15'0 0.1
2015-Jun-29 07:31N 49°36' W 000°15'0 0.0
2015-Jun-29 06:31N 49°36' W 000°15'0 0.0
2015-Jun-29 05:31N 49°36' W 000°15'0 0.1
2015-Jun-29 04:31N 49°36' W 000°15'0 0.2
2015-Jun-29 03:31N 49°36' W 000°15'0 0.1
2015-Jun-29 02:31N 49°36' W 000°15'0 0.0
2015-Jun-29 01:31N 49°36' W 000°15'0 0.0
2015-Jun-29 00:31N 49°36' W 000°15'0 0.0
2015-Jun-28 23:31N 49°36' W 000°16'0 0.0
2015-Jun-28 22:31N 49°36' W 000°15'0 0.1
2015-Jun-28 21:28N 49°36' W 000°15'0 0.2
2015-Jun-28 20:31N 49°36' W 000°15'0 0.0
2015-Jun-28 19:31N 49°36' W 000°15'0 0.0
2015-Jun-28 18:31N 49°36' W 000°15'0 0.0
2015-Jun-28 17:31N 49°36' W 000°15'0 0.1
2015-Jun-28 16:31N 49°36' W 000°15'0 0.1
2015-Jun-28 15:31N 49°36' W 000°15'0 0.1
2015-Jun-28 14:31N 49°36' W 000°15'0 0.1
2015-Jun-28 13:31N 49°36' W 000°15'0 0.0
2015-Jun-28 12:31N 49°36' W 000°15'0 0.0
2015-Jun-28 11:31N 49°36' W 000°15'0 0.0
2015-Jun-28 10:31N 49°36' W 000°15'0 0.1
2015-Jun-28 09:31N 49°36' W 000°15'0 0.2
2015-Jun-28 08:31N 49°36' W 000°15'0 0.0
2015-Jun-28 07:31N 49°36' W 000°15'0 0.0
2015-Jun-28 06:31N 49°36' W 000°15'0 0.0
2015-Jun-28 05:31N 49°36' W 000°15'0 0.0
2015-Jun-28 04:31N 49°36' W 000°15'0 0.0
2015-Jun-28 03:31N 49°36' W 000°15'0 0.2
2015-Jun-28 02:31N 49°36' W 000°15'0 0.1
2015-Jun-28 01:31N 49°36' W 000°15'0 0.0
2015-Jun-28 00:31N 49°36' W 000°15'0 0.0
2015-Jun-27 23:31N 49°36' W 000°15'0 0.0
2015-Jun-27 22:31N 49°36' W 000°15'0 0.0
2015-Jun-27 21:31N 49°36' W 000°15'0 0.2
2015-Jun-27 20:31N 49°36' W 000°15'0 0.2
2015-Jun-27 19:31N 49°36' W 000°15'0 0.0
2015-Jun-27 18:31N 49°36' W 000°15'0 0.0
2015-Jun-27 17:31N 49°36' W 000°15'0 0.0
2015-Jun-27 16:31N 49°36' W 000°15'1 0.8
2015-Jun-27 15:34N 49°35' W 000°16'8 7.8
2015-Jun-27 14:34N 49°38' W 000°27'1313.2
2015-Jun-27 13:34N 49°43' W 000°46'1312.8
2015-Jun-27 12:33N 49°49' W 001°04'  
2015-Jun-24 22:14N 39°47' W 011°03'1012.8
2015-Jun-24 21:25N 39°38' W 011°07'1512.9
2015-Jun-24 20:14N 39°23' W 011°13'913.2
2015-Jun-24 19:33N 39°14' W 011°16'1413.2
2015-Jun-24 18:28N 39°00' W 011°21'  
2015-Jun-22 09:34N 27°55' W 014°60'1212.1
2015-Jun-22 08:33N 27°43' W 015°04'1412.5
2015-Jun-22 07:25N 27°31' W 015°11'  
Track history (hours):
 
Tides and Currents Weather Stations Pressure Air Temp Water Temp Dewpoint Dewpoint Depression Visibility Wind Speed Wind Dir Waves Ship Positions

Stena Suede

Last reported at 2015-Jul-01 16:10 UTC. Time now 2015-Jul-04 11:50 UTC.
Position N 49°44' W 003°36'.

Length 274 m; draft 9.3 m.

Type: Tanker. MMSI: 310622000.

Date/timePositionNaut miles runAvg speedWind from/ knotsBaromVisibWave heightAir tempDewpointWater temp
2015-Jul-01 16:10N 49°44' W 003°36'2213.3
2015-Jul-01 14:30N 49°56' W 003°07'1515.6
2015-Jul-01 13:33N 50°00' W 002°45'1616.5
2015-Jul-01 12:34N 50°04' W 002°20'1716.5
2015-Jul-01 11:32N 50°02' W 001°54'1615.3
2015-Jul-01 10:27N 49°55' W 001°31'1713.8
2015-Jul-01 09:12N 49°48' W 001°06'812.9
2015-Jul-01 08:33N 49°45' W 000°54'1312.6
2015-Jul-01 07:33N 49°41' W 000°36'1312.9
2015-Jul-01 06:34N 49°35' W 000°18'1312.5
2015-Jul-01 05:34N 49°30' W 000°00'6 5.4
2015-Jul-01 04:33N 49°28' E 000°08'0 0.0
2015-Jul-01 03:33N 49°28' E 000°08'0 0.0
2015-Jul-01 02:33N 49°28' E 000°08'0 0.0
2015-Jul-01 01:33N 49°28' E 000°08'0 0.0
2015-Jul-01 00:33N 49°28' E 000°08'0 0.0
2015-Jun-30 23:33N 49°28' E 000°08'0 0.0
2015-Jun-30 22:33N 49°28' E 000°08'0 0.0
2015-Jun-30 21:33N 49°28' E 000°08'0 0.0
2015-Jun-30 20:33N 49°28' E 000°08'0 0.0
2015-Jun-30 19:33N 49°28' E 000°08'0 0.0
2015-Jun-30 18:33N 49°28' E 000°08'0 0.0
2015-Jun-30 17:33N 49°28' E 000°08'0 0.0
2015-Jun-30 16:33N 49°28' E 000°08'0 0.0
2015-Jun-30 15:33N 49°28' E 000°08'0 0.0
2015-Jun-30 14:33N 49°28' E 000°08'0 0.0
2015-Jun-30 13:33N 49°28' E 000°08'0 0.0
2015-Jun-30 12:33N 49°28' E 000°08'0 0.0
2015-Jun-30 11:33N 49°28' E 000°08'0 0.0
2015-Jun-30 10:33N 49°28' E 000°08'0 0.0
2015-Jun-30 09:33N 49°28' E 000°08'0 0.0
2015-Jun-30 08:33N 49°28' E 000°08'0 0.0
2015-Jun-30 07:33N 49°28' E 000°08'0 0.0
2015-Jun-30 06:33N 49°28' E 000°08'0 0.0
2015-Jun-30 05:33N 49°28' E 000°08'0 0.0
2015-Jun-30 04:33N 49°28' E 000°08'0 0.0
2015-Jun-30 03:33N 49°28' E 000°08'0 0.0
2015-Jun-30 02:33N 49°28' E 000°08'0 0.0
2015-Jun-30 01:33N 49°28' E 000°08'0 0.0
2015-Jun-30 00:33N 49°28' E 000°08'0 0.0
2015-Jun-29 23:33N 49°28' E 000°08'0 0.0
2015-Jun-29 22:32N 49°28' E 000°08'0 0.0
2015-Jun-29 21:33N 49°28' E 000°08'0 0.0
2015-Jun-29 20:33N 49°28' E 000°08'0 0.0
2015-Jun-29 19:33N 49°28' E 000°08'0 0.1
2015-Jun-29 18:34N 49°28' E 000°08'5 5.2
2015-Jun-29 17:34N 49°30' E 000°00'9 8.9
2015-Jun-29 16:34N 49°34' W 000°12'3 2.6
2015-Jun-29 15:31N 49°36' W 000°16'0 0.1
2015-Jun-29 14:31N 49°36' W 000°16'0 0.0
2015-Jun-29 13:31N 49°36' W 000°16'0 0.0
2015-Jun-29 12:28N 49°36' W 000°16'0 0.0
2015-Jun-29 11:31N 49°36' W 000°16'0 0.1
2015-Jun-29 10:31N 49°36' W 000°15'0 0.2
2015-Jun-29 09:31N 49°36' W 000°15'0 0.1
2015-Jun-29 08:31N 49°36' W 000°15'0 0.1
2015-Jun-29 07:31N 49°36' W 000°15'0 0.0
2015-Jun-29 06:31N 49°36' W 000°15'0 0.0
2015-Jun-29 05:31N 49°36' W 000°15'0 0.1
2015-Jun-29 04:31N 49°36' W 000°15'0 0.2
2015-Jun-29 03:31N 49°36' W 000°15'0 0.1
2015-Jun-29 02:31N 49°36' W 000°15'0 0.0
2015-Jun-29 01:31N 49°36' W 000°15'0 0.0
2015-Jun-29 00:31N 49°36' W 000°15'0 0.0
2015-Jun-28 23:31N 49°36' W 000°16'0 0.0
2015-Jun-28 22:31N 49°36' W 000°15'0 0.1
2015-Jun-28 21:28N 49°36' W 000°15'0 0.2
2015-Jun-28 20:31N 49°36' W 000°15'0 0.0
2015-Jun-28 19:31N 49°36' W 000°15'0 0.0
2015-Jun-28 18:31N 49°36' W 000°15'0 0.0
2015-Jun-28 17:31N 49°36' W 000°15'0 0.1
2015-Jun-28 16:31N 49°36' W 000°15'0 0.1
2015-Jun-28 15:31N 49°36' W 000°15'0 0.1
2015-Jun-28 14:31N 49°36' W 000°15'0 0.1
2015-Jun-28 13:31N 49°36' W 000°15'0 0.0
2015-Jun-28 12:31N 49°36' W 000°15'0 0.0
2015-Jun-28 11:31N 49°36' W 000°15'0 0.0
2015-Jun-28 10:31N 49°36' W 000°15'0 0.1
2015-Jun-28 09:31N 49°36' W 000°15'0 0.2
2015-Jun-28 08:31N 49°36' W 000°15'0 0.0
2015-Jun-28 07:31N 49°36' W 000°15'0 0.0
2015-Jun-28 06:31N 49°36' W 000°15'0 0.0
2015-Jun-28 05:31N 49°36' W 000°15'0 0.0
2015-Jun-28 04:31N 49°36' W 000°15'0 0.0
2015-Jun-28 03:31N 49°36' W 000°15'0 0.2
2015-Jun-28 02:31N 49°36' W 000°15'0 0.1
2015-Jun-28 01:31N 49°36' W 000°15'0 0.0
2015-Jun-28 00:31N 49°36' W 000°15'0 0.0
2015-Jun-27 23:31N 49°36' W 000°15'0 0.0
2015-Jun-27 22:31N 49°36' W 000°15'0 0.0
2015-Jun-27 21:31N 49°36' W 000°15'0 0.2
2015-Jun-27 20:31N 49°36' W 000°15'0 0.2
2015-Jun-27 19:31N 49°36' W 000°15'0 0.0
2015-Jun-27 18:31N 49°36' W 000°15'0 0.0
2015-Jun-27 17:31N 49°36' W 000°15'0 0.0
2015-Jun-27 16:31N 49°36' W 000°15'1 0.8
2015-Jun-27 15:34N 49°35' W 000°16'8 7.8
2015-Jun-27 14:34N 49°38' W 000°27'1313.2
2015-Jun-27 13:34N 49°43' W 000°46'1312.8
2015-Jun-27 12:33N 49°49' W 001°04'  
2015-Jun-24 22:14N 39°47' W 011°03'1012.8
2015-Jun-24 21:25N 39°38' W 011°07'1512.9
2015-Jun-24 20:14N 39°23' W 011°13'913.2
2015-Jun-24 19:33N 39°14' W 011°16'1413.2
2015-Jun-24 18:28N 39°00' W 011°21'  
2015-Jun-22 09:34N 27°55' W 014°60'1212.1
2015-Jun-22 08:33N 27°43' W 015°04'1412.5
2015-Jun-22 07:25N 27°31' W 015°11'  

Dump ship's entire track history